sensor_id;sensor_type;location;lat;lon;timestamp;P1;durP1;ratioP1;P2;durP2;ratioP2
66856;SDS011;53766;50.280;19.160;2023-02-28T00:01:32;5.25;;;2.83;;
66856;SDS011;53766;50.280;19.160;2023-02-28T00:03:59;5.90;;;2.88;;
66856;SDS011;53766;50.280;19.160;2023-02-28T00:06:27;5.50;;;3.05;;
66856;SDS011;53766;50.280;19.160;2023-02-28T00:08:54;5.97;;;3.17;;
66856;SDS011;53766;50.280;19.160;2023-02-28T00:11:21;6.88;;;3.25;;
66856;SDS011;53766;50.280;19.160;2023-02-28T00:13:49;4.93;;;2.90;;
66856;SDS011;53766;50.280;19.160;2023-02-28T00:16:18;5.65;;;3.08;;
66856;SDS011;53766;50.280;19.160;2023-02-28T00:18:48;5.30;;;3.20;;
66856;SDS011;53766;50.280;19.160;2023-02-28T00:21:17;6.47;;;3.22;;
66856;SDS011;53766;50.280;19.160;2023-02-28T00:23:45;5.57;;;2.67;;
66856;SDS011;53766;50.280;19.160;2023-02-28T00:26:13;4.75;;;3.00;;
66856;SDS011;53766;50.280;19.160;2023-02-28T00:28:40;6.85;;;3.53;;
66856;SDS011;53766;50.280;19.160;2023-02-28T00:31:07;6.13;;;3.50;;
66856;SDS011;53766;50.280;19.160;2023-02-28T00:33:35;5.50;;;3.05;;
66856;SDS011;53766;50.280;19.160;2023-02-28T00:36:03;6.07;;;3.03;;
66856;SDS011;53766;50.280;19.160;2023-02-28T00:38:39;7.65;;;3.00;;
66856;SDS011;53766;50.280;19.160;2023-02-28T00:41:08;6.43;;;3.25;;
66856;SDS011;53766;50.280;19.160;2023-02-28T00:43:37;4.38;;;2.78;;
66856;SDS011;53766;50.280;19.160;2023-02-28T00:46:05;5.97;;;2.97;;
66856;SDS011;53766;50.280;19.160;2023-02-28T00:48:34;5.78;;;3.35;;
66856;SDS011;53766;50.280;19.160;2023-02-28T00:51:01;5.70;;;3.25;;
66856;SDS011;53766;50.280;19.160;2023-02-28T00:53:29;5.72;;;3.00;;
66856;SDS011;53766;50.280;19.160;2023-02-28T00:55:57;4.78;;;2.80;;
66856;SDS011;53766;50.280;19.160;2023-02-28T00:58:25;6.18;;;2.95;;
66856;SDS011;53766;50.280;19.160;2023-02-28T01:00:53;8.70;;;3.53;;
66856;SDS011;53766;50.280;19.160;2023-02-28T01:03:21;6.72;;;3.47;;
66856;SDS011;53766;50.280;19.160;2023-02-28T01:05:50;5.30;;;3.00;;
66856;SDS011;53766;50.280;19.160;2023-02-28T01:08:19;6.60;;;3.20;;
66856;SDS011;53766;50.280;19.160;2023-02-28T01:10:47;5.55;;;3.30;;
66856;SDS011;53766;50.280;19.160;2023-02-28T01:13:14;5.50;;;3.15;;
66856;SDS011;53766;50.280;19.160;2023-02-28T01:15:48;6.78;;;3.42;;
66856;SDS011;53766;50.280;19.160;2023-02-28T01:18:18;6.13;;;3.38;;
66856;SDS011;53766;50.280;19.160;2023-02-28T01:20:46;5.90;;;3.05;;
66856;SDS011;53766;50.280;19.160;2023-02-28T01:23:14;8.05;;;3.85;;
66856;SDS011;53766;50.280;19.160;2023-02-28T01:25:41;5.75;;;3.30;;
66856;SDS011;53766;50.280;19.160;2023-02-28T01:28:09;6.10;;;3.20;;
66856;SDS011;53766;50.280;19.160;2023-02-28T01:30:36;6.03;;;3.38;;
66856;SDS011;53766;50.280;19.160;2023-02-28T01:33:03;5.75;;;3.50;;
66856;SDS011;53766;50.280;19.160;2023-02-28T01:35:32;5.75;;;3.10;;
66856;SDS011;53766;50.280;19.160;2023-02-28T01:38:01;6.78;;;3.70;;
66856;SDS011;53766;50.280;19.160;2023-02-28T01:40:47;5.50;;;3.05;;
66856;SDS011;53766;50.280;19.160;2023-02-28T01:46:11;5.90;;;3.38;;
66856;SDS011;53766;50.280;19.160;2023-02-28T01:48:44;7.25;;;3.67;;
66856;SDS011;53766;50.280;19.160;2023-02-28T01:51:26;5.97;;;3.38;;
66856;SDS011;53766;50.280;19.160;2023-02-28T01:54:02;6.03;;;3.10;;
66856;SDS011;53766;50.280;19.160;2023-02-28T01:56:43;6.32;;;3.50;;
66856;SDS011;53766;50.280;19.160;2023-02-28T01:59:14;6.07;;;3.30;;
66856;SDS011;53766;50.280;19.160;2023-02-28T02:01:49;7.82;;;3.72;;
66856;SDS011;53766;50.280;19.160;2023-02-28T02:04:17;5.63;;;3.40;;
66856;SDS011;53766;50.280;19.160;2023-02-28T02:06:45;7.78;;;4.15;;
66856;SDS011;53766;50.280;19.160;2023-02-28T02:09:15;6.75;;;3.30;;
66856;SDS011;53766;50.280;19.160;2023-02-28T02:11:43;8.20;;;3.70;;
66856;SDS011;53766;50.280;19.160;2023-02-28T02:17:31;6.18;;;3.35;;
66856;SDS011;53766;50.280;19.160;2023-02-28T02:23:10;7.28;;;3.85;;
66856;SDS011;53766;50.280;19.160;2023-02-28T02:34:09;6.20;;;3.42;;
66856;SDS011;53766;50.280;19.160;2023-02-28T02:37:03;7.35;;;3.75;;
66856;SDS011;53766;50.280;19.160;2023-02-28T02:45:32;7.38;;;3.45;;
66856;SDS011;53766;50.280;19.160;2023-02-28T02:48:04;6.90;;;3.90;;
66856;SDS011;53766;50.280;19.160;2023-02-28T02:50:40;6.35;;;3.70;;
66856;SDS011;53766;50.280;19.160;2023-02-28T02:53:12;7.28;;;3.90;;
66856;SDS011;53766;50.280;19.160;2023-02-28T02:55:44;6.50;;;3.70;;
66856;SDS011;53766;50.280;19.160;2023-02-28T02:58:22;6.80;;;3.67;;
66856;SDS011;53766;50.280;19.160;2023-02-28T03:00:54;6.78;;;3.75;;
66856;SDS011;53766;50.280;19.160;2023-02-28T03:03:26;8.07;;;4.00;;
66856;SDS011;53766;50.280;19.160;2023-02-28T03:05:58;8.70;;;4.43;;
66856;SDS011;53766;50.280;19.160;2023-02-28T03:08:27;6.78;;;3.72;;
66856;SDS011;53766;50.280;19.160;2023-02-28T03:11:01;6.72;;;3.75;;
66856;SDS011;53766;50.280;19.160;2023-02-28T03:16:22;7.22;;;3.83;;
66856;SDS011;53766;50.280;19.160;2023-02-28T03:22:23;10.18;;;4.47;;
66856;SDS011;53766;50.280;19.160;2023-02-28T03:24:52;7.47;;;4.10;;
66856;SDS011;53766;50.280;19.160;2023-02-28T03:27:27;7.07;;;3.92;;
66856;SDS011;53766;50.280;19.160;2023-02-28T03:30:04;7.60;;;3.93;;
66856;SDS011;53766;50.280;19.160;2023-02-28T03:32:38;8.32;;;3.88;;
66856;SDS011;53766;50.280;19.160;2023-02-28T03:35:18;7.82;;;4.13;;
66856;SDS011;53766;50.280;19.160;2023-02-28T03:37:52;7.65;;;3.85;;
66856;SDS011;53766;50.280;19.160;2023-02-28T03:42:57;6.63;;;3.80;;
66856;SDS011;53766;50.280;19.160;2023-02-28T03:45:30;7.75;;;4.18;;
66856;SDS011;53766;50.280;19.160;2023-02-28T03:48:02;7.82;;;4.03;;
66856;SDS011;53766;50.280;19.160;2023-02-28T03:50:40;8.57;;;4.63;;
66856;SDS011;53766;50.280;19.160;2023-02-28T03:53:25;7.38;;;3.80;;
66856;SDS011;53766;50.280;19.160;2023-02-28T03:56:00;7.38;;;3.88;;
66856;SDS011;53766;50.280;19.160;2023-02-28T03:58:43;7.30;;;4.03;;
66856;SDS011;53766;50.280;19.160;2023-02-28T04:01:35;6.97;;;4.00;;
66856;SDS011;53766;50.280;19.160;2023-02-28T04:04:09;7.07;;;4.20;;
66856;SDS011;53766;50.280;19.160;2023-02-28T04:06:37;7.45;;;4.18;;
66856;SDS011;53766;50.280;19.160;2023-02-28T04:09:06;7.68;;;4.40;;
66856;SDS011;53766;50.280;19.160;2023-02-28T04:11:36;6.40;;;3.90;;
66856;SDS011;53766;50.280;19.160;2023-02-28T04:14:09;7.47;;;4.07;;
66856;SDS011;53766;50.280;19.160;2023-02-28T04:16:39;7.82;;;4.28;;
66856;SDS011;53766;50.280;19.160;2023-02-28T04:19:09;10.00;;;4.15;;
66856;SDS011;53766;50.280;19.160;2023-02-28T04:21:42;10.52;;;4.43;;
66856;SDS011;53766;50.280;19.160;2023-02-28T04:24:13;8.40;;;4.40;;
66856;SDS011;53766;50.280;19.160;2023-02-28T04:26:44;8.05;;;4.20;;
66856;SDS011;53766;50.280;19.160;2023-02-28T04:29:17;8.07;;;3.72;;
66856;SDS011;53766;50.280;19.160;2023-02-28T04:31:46;7.95;;;4.28;;
66856;SDS011;53766;50.280;19.160;2023-02-28T04:34:14;8.68;;;4.50;;
66856;SDS011;53766;50.280;19.160;2023-02-28T04:36:41;8.00;;;4.25;;
66856;SDS011;53766;50.280;19.160;2023-02-28T04:39:09;9.75;;;4.55;;
66856;SDS011;53766;50.280;19.160;2023-02-28T04:41:36;7.30;;;4.15;;
66856;SDS011;53766;50.280;19.160;2023-02-28T04:44:04;8.02;;;4.22;;
66856;SDS011;53766;50.280;19.160;2023-02-28T04:46:31;8.57;;;4.57;;
66856;SDS011;53766;50.280;19.160;2023-02-28T04:48:59;7.70;;;4.82;;
66856;SDS011;53766;50.280;19.160;2023-02-28T04:51:26;10.20;;;4.75;;
66856;SDS011;53766;50.280;19.160;2023-02-28T04:53:55;7.55;;;4.47;;
66856;SDS011;53766;50.280;19.160;2023-02-28T04:56:22;7.13;;;3.90;;
66856;SDS011;53766;50.280;19.160;2023-02-28T04:58:50;8.18;;;4.30;;
66856;SDS011;53766;50.280;19.160;2023-02-28T05:01:21;7.65;;;3.97;;
66856;SDS011;53766;50.280;19.160;2023-02-28T05:04:00;8.00;;;4.40;;
66856;SDS011;53766;50.280;19.160;2023-02-28T05:06:29;8.10;;;4.50;;
66856;SDS011;53766;50.280;19.160;2023-02-28T05:08:58;7.88;;;4.50;;
66856;SDS011;53766;50.280;19.160;2023-02-28T05:11:30;7.75;;;4.20;;
66856;SDS011;53766;50.280;19.160;2023-02-28T05:14:03;9.70;;;4.90;;
66856;SDS011;53766;50.280;19.160;2023-02-28T05:16:33;7.43;;;4.40;;
66856;SDS011;53766;50.280;19.160;2023-02-28T05:19:00;8.48;;;4.85;;
66856;SDS011;53766;50.280;19.160;2023-02-28T05:23:59;8.45;;;4.70;;
66856;SDS011;53766;50.280;19.160;2023-02-28T05:26:28;8.45;;;4.80;;
66856;SDS011;53766;50.280;19.160;2023-02-28T05:28:56;7.85;;;4.38;;
66856;SDS011;53766;50.280;19.160;2023-02-28T05:31:23;8.93;;;4.40;;
66856;SDS011;53766;50.280;19.160;2023-02-28T05:33:51;7.88;;;4.30;;
66856;SDS011;53766;50.280;19.160;2023-02-28T05:36:19;7.40;;;4.40;;
66856;SDS011;53766;50.280;19.160;2023-02-28T05:38:47;9.10;;;4.30;;
66856;SDS011;53766;50.280;19.160;2023-02-28T05:41:16;7.55;;;4.45;;
66856;SDS011;53766;50.280;19.160;2023-02-28T05:43:46;7.15;;;4.30;;
66856;SDS011;53766;50.280;19.160;2023-02-28T05:46:14;10.40;;;4.70;;
66856;SDS011;53766;50.280;19.160;2023-02-28T05:48:42;8.38;;;4.68;;
66856;SDS011;53766;50.280;19.160;2023-02-28T05:51:13;10.32;;;4.90;;
66856;SDS011;53766;50.280;19.160;2023-02-28T05:53:41;7.68;;;4.28;;
66856;SDS011;53766;50.280;19.160;2023-02-28T05:56:08;10.45;;;5.03;;
66856;SDS011;53766;50.280;19.160;2023-02-28T05:58:35;8.95;;;4.50;;
66856;SDS011;53766;50.280;19.160;2023-02-28T06:01:19;9.98;;;5.03;;
66856;SDS011;53766;50.280;19.160;2023-02-28T06:04:05;7.55;;;4.45;;
66856;SDS011;53766;50.280;19.160;2023-02-28T06:06:33;8.25;;;4.57;;
66856;SDS011;53766;50.280;19.160;2023-02-28T06:09:06;8.18;;;4.93;;
66856;SDS011;53766;50.280;19.160;2023-02-28T06:11:35;8.52;;;4.85;;
66856;SDS011;53766;50.280;19.160;2023-02-28T06:14:03;8.10;;;4.53;;
66856;SDS011;53766;50.280;19.160;2023-02-28T06:16:31;9.77;;;4.85;;
66856;SDS011;53766;50.280;19.160;2023-02-28T06:19:01;8.57;;;5.20;;
66856;SDS011;53766;50.280;19.160;2023-02-28T06:21:31;8.93;;;4.80;;
66856;SDS011;53766;50.280;19.160;2023-02-28T06:23:59;8.43;;;4.90;;
66856;SDS011;53766;50.280;19.160;2023-02-28T06:26:26;9.45;;;5.07;;
66856;SDS011;53766;50.280;19.160;2023-02-28T06:28:54;11.60;;;5.25;;
66856;SDS011;53766;50.280;19.160;2023-02-28T06:31:21;9.98;;;5.00;;
66856;SDS011;53766;50.280;19.160;2023-02-28T06:33:50;10.65;;;5.53;;
66856;SDS011;53766;50.280;19.160;2023-02-28T06:36:17;11.43;;;5.57;;
66856;SDS011;53766;50.280;19.160;2023-02-28T06:38:45;9.88;;;5.18;;
66856;SDS011;53766;50.280;19.160;2023-02-28T06:41:15;10.23;;;5.18;;
66856;SDS011;53766;50.280;19.160;2023-02-28T06:43:43;10.00;;;5.30;;
66856;SDS011;53766;50.280;19.160;2023-02-28T06:46:11;10.57;;;5.78;;
66856;SDS011;53766;50.280;19.160;2023-02-28T06:48:42;12.98;;;5.72;;
66856;SDS011;53766;50.280;19.160;2023-02-28T06:51:12;11.70;;;5.40;;
66856;SDS011;53766;50.280;19.160;2023-02-28T06:53:45;10.38;;;5.47;;
66856;SDS011;53766;50.280;19.160;2023-02-28T06:56:13;13.38;;;5.80;;
66856;SDS011;53766;50.280;19.160;2023-02-28T06:58:42;10.27;;;5.45;;
66856;SDS011;53766;50.280;19.160;2023-02-28T07:01:13;9.93;;;5.53;;
66856;SDS011;53766;50.280;19.160;2023-02-28T07:03:41;12.35;;;5.88;;
66856;SDS011;53766;50.280;19.160;2023-02-28T07:06:08;10.48;;;5.65;;
66856;SDS011;53766;50.280;19.160;2023-02-28T07:08:37;10.50;;;5.22;;
66856;SDS011;53766;50.280;19.160;2023-02-28T07:11:04;12.95;;;5.90;;
66856;SDS011;53766;50.280;19.160;2023-02-28T07:13:32;13.75;;;6.03;;
66856;SDS011;53766;50.280;19.160;2023-02-28T07:16:01;10.98;;;5.88;;
66856;SDS011;53766;50.280;19.160;2023-02-28T07:18:34;11.50;;;6.03;;
66856;SDS011;53766;50.280;19.160;2023-02-28T07:21:02;10.90;;;5.40;;
66856;SDS011;53766;50.280;19.160;2023-02-28T07:23:31;10.02;;;5.43;;
66856;SDS011;53766;50.280;19.160;2023-02-28T07:25:59;9.75;;;5.57;;
66856;SDS011;53766;50.280;19.160;2023-02-28T07:28:27;10.77;;;5.80;;
66856;SDS011;53766;50.280;19.160;2023-02-28T07:30:54;11.32;;;5.72;;
66856;SDS011;53766;50.280;19.160;2023-02-28T07:33:22;10.75;;;6.22;;
66856;SDS011;53766;50.280;19.160;2023-02-28T07:35:50;12.88;;;5.90;;
66856;SDS011;53766;50.280;19.160;2023-02-28T07:38:18;11.15;;;6.10;;
66856;SDS011;53766;50.280;19.160;2023-02-28T07:40:45;12.32;;;6.20;;
66856;SDS011;53766;50.280;19.160;2023-02-28T07:43:13;11.73;;;5.82;;
66856;SDS011;53766;50.280;19.160;2023-02-28T07:45:40;11.90;;;6.03;;
66856;SDS011;53766;50.280;19.160;2023-02-28T07:48:08;10.52;;;5.85;;
66856;SDS011;53766;50.280;19.160;2023-02-28T07:50:36;11.90;;;5.95;;
66856;SDS011;53766;50.280;19.160;2023-02-28T07:53:04;11.50;;;5.88;;
66856;SDS011;53766;50.280;19.160;2023-02-28T07:55:32;10.32;;;5.53;;
66856;SDS011;53766;50.280;19.160;2023-02-28T07:57:59;10.38;;;5.45;;
66856;SDS011;53766;50.280;19.160;2023-02-28T08:00:27;11.57;;;5.93;;
66856;SDS011;53766;50.280;19.160;2023-02-28T08:02:56;9.23;;;5.43;;
66856;SDS011;53766;50.280;19.160;2023-02-28T08:05:23;13.32;;;6.05;;
66856;SDS011;53766;50.280;19.160;2023-02-28T08:07:53;11.98;;;5.97;;
66856;SDS011;53766;50.280;19.160;2023-02-28T08:10:21;11.32;;;5.60;;
66856;SDS011;53766;50.280;19.160;2023-02-28T08:12:49;10.70;;;5.43;;
66856;SDS011;53766;50.280;19.160;2023-02-28T08:15:16;12.32;;;6.20;;
66856;SDS011;53766;50.280;19.160;2023-02-28T08:17:44;9.30;;;5.10;;
66856;SDS011;53766;50.280;19.160;2023-02-28T08:20:11;10.77;;;5.70;;
66856;SDS011;53766;50.280;19.160;2023-02-28T08:22:39;13.10;;;6.20;;
66856;SDS011;53766;50.280;19.160;2023-02-28T08:25:06;9.63;;;5.40;;
66856;SDS011;53766;50.280;19.160;2023-02-28T08:27:34;10.48;;;5.68;;
66856;SDS011;53766;50.280;19.160;2023-02-28T08:30:03;10.70;;;5.57;;
66856;SDS011;53766;50.280;19.160;2023-02-28T08:32:32;10.80;;;5.47;;
66856;SDS011;53766;50.280;19.160;2023-02-28T08:35:00;11.48;;;6.03;;
66856;SDS011;53766;50.280;19.160;2023-02-28T08:37:29;11.15;;;5.93;;
66856;SDS011;53766;50.280;19.160;2023-02-28T08:39:56;11.93;;;5.90;;
66856;SDS011;53766;50.280;19.160;2023-02-28T08:42:26;11.15;;;5.63;;
66856;SDS011;53766;50.280;19.160;2023-02-28T08:44:53;11.13;;;5.60;;
66856;SDS011;53766;50.280;19.160;2023-02-28T08:47:21;10.52;;;5.63;;
66856;SDS011;53766;50.280;19.160;2023-02-28T08:49:48;10.32;;;5.78;;
66856;SDS011;53766;50.280;19.160;2023-02-28T08:52:16;10.73;;;5.80;;
66856;SDS011;53766;50.280;19.160;2023-02-28T08:54:43;10.07;;;5.93;;
66856;SDS011;53766;50.280;19.160;2023-02-28T08:57:11;12.15;;;5.82;;
66856;SDS011;53766;50.280;19.160;2023-02-28T08:59:38;11.30;;;5.45;;
66856;SDS011;53766;50.280;19.160;2023-02-28T09:02:05;7.97;;;5.25;;
66856;SDS011;53766;50.280;19.160;2023-02-28T09:04:33;10.35;;;5.28;;
66856;SDS011;53766;50.280;19.160;2023-02-28T09:07:01;11.50;;;6.03;;
66856;SDS011;53766;50.280;19.160;2023-02-28T09:09:28;10.18;;;5.50;;
66856;SDS011;53766;50.280;19.160;2023-02-28T09:11:56;10.15;;;5.60;;
66856;SDS011;53766;50.280;19.160;2023-02-28T09:14:24;11.48;;;5.90;;
66856;SDS011;53766;50.280;19.160;2023-02-28T09:16:52;11.25;;;5.50;;
66856;SDS011;53766;50.280;19.160;2023-02-28T09:19:38;10.85;;;6.07;;
66856;SDS011;53766;50.280;19.160;2023-02-28T09:22:26;11.57;;;5.95;;
66856;SDS011;53766;50.280;19.160;2023-02-28T09:25:14;12.68;;;5.40;;
66856;SDS011;53766;50.280;19.160;2023-02-28T09:28:02;10.50;;;5.65;;
66856;SDS011;53766;50.280;19.160;2023-02-28T09:30:51;11.93;;;6.00;;
66856;SDS011;53766;50.280;19.160;2023-02-28T09:33:41;10.57;;;5.65;;
66856;SDS011;53766;50.280;19.160;2023-02-28T09:36:29;11.00;;;5.60;;
66856;SDS011;53766;50.280;19.160;2023-02-28T09:39:10;10.93;;;5.57;;
66856;SDS011;53766;50.280;19.160;2023-02-28T09:41:40;11.63;;;5.30;;
66856;SDS011;53766;50.280;19.160;2023-02-28T09:47:07;10.45;;;5.43;;
66856;SDS011;53766;50.280;19.160;2023-02-28T09:49:42;11.50;;;5.82;;
66856;SDS011;53766;50.280;19.160;2023-02-28T09:52:15;10.90;;;5.60;;
66856;SDS011;53766;50.280;19.160;2023-02-28T09:54:46;13.60;;;5.47;;
66856;SDS011;53766;50.280;19.160;2023-02-28T10:00:02;14.90;;;5.43;;
66856;SDS011;53766;50.280;19.160;2023-02-28T10:05:29;12.60;;;5.78;;
66856;SDS011;53766;50.280;19.160;2023-02-28T10:10:42;17.63;;;5.78;;
66856;SDS011;53766;50.280;19.160;2023-02-28T10:13:13;21.05;;;5.95;;
66856;SDS011;53766;50.280;19.160;2023-02-28T10:15:44;17.70;;;5.70;;
66856;SDS011;53766;50.280;19.160;2023-02-28T10:18:16;21.10;;;6.00;;
66856;SDS011;53766;50.280;19.160;2023-02-28T10:20:51;15.85;;;6.10;;
66856;SDS011;53766;50.280;19.160;2023-02-28T10:23:24;16.20;;;6.28;;
66856;SDS011;53766;50.280;19.160;2023-02-28T10:26:00;17.98;;;6.78;;
66856;SDS011;53766;50.280;19.160;2023-02-28T10:28:32;13.18;;;6.32;;
66856;SDS011;53766;50.280;19.160;2023-02-28T10:30:59;14.45;;;6.13;;
66856;SDS011;53766;50.280;19.160;2023-02-28T10:33:28;22.40;;;6.03;;
66856;SDS011;53766;50.280;19.160;2023-02-28T10:35:58;16.75;;;6.60;;
66856;SDS011;53766;50.280;19.160;2023-02-28T10:38:34;14.15;;;5.85;;
66856;SDS011;53766;50.280;19.160;2023-02-28T10:44:11;18.20;;;6.03;;
66856;SDS011;53766;50.280;19.160;2023-02-28T10:46:49;14.95;;;5.95;;
66856;SDS011;53766;50.280;19.160;2023-02-28T10:49:22;12.55;;;6.32;;
66856;SDS011;53766;50.280;19.160;2023-02-28T10:51:56;16.95;;;6.45;;
66856;SDS011;53766;50.280;19.160;2023-02-28T10:54:29;16.15;;;6.07;;
66856;SDS011;53766;50.280;19.160;2023-02-28T10:59:33;13.00;;;6.15;;
66856;SDS011;53766;50.280;19.160;2023-02-28T11:02:02;16.55;;;6.03;;
66856;SDS011;53766;50.280;19.160;2023-02-28T11:04:49;12.38;;;5.72;;
66856;SDS011;53766;50.280;19.160;2023-02-28T11:09:50;10.10;;;5.50;;
66856;SDS011;53766;50.280;19.160;2023-02-28T11:14:50;12.00;;;5.60;;
66856;SDS011;53766;50.280;19.160;2023-02-28T11:17:24;14.55;;;5.90;;
66856;SDS011;53766;50.280;19.160;2023-02-28T11:19:58;12.27;;;5.78;;
66856;SDS011;53766;50.280;19.160;2023-02-28T11:22:31;14.52;;;5.95;;
66856;SDS011;53766;50.280;19.160;2023-02-28T11:25:07;11.75;;;5.70;;
66856;SDS011;53766;50.280;19.160;2023-02-28T11:27:49;11.23;;;5.97;;
66856;SDS011;53766;50.280;19.160;2023-02-28T11:30:29;10.77;;;5.50;;
66856;SDS011;53766;50.280;19.160;2023-02-28T11:32:57;16.38;;;5.82;;
66856;SDS011;53766;50.280;19.160;2023-02-28T11:35:31;11.45;;;5.68;;
66856;SDS011;53766;50.280;19.160;2023-02-28T11:38:02;10.10;;;5.28;;
66856;SDS011;53766;50.280;19.160;2023-02-28T11:40:43;12.20;;;5.18;;
66856;SDS011;53766;50.280;19.160;2023-02-28T11:49:21;11.57;;;5.47;;
66856;SDS011;53766;50.280;19.160;2023-02-28T12:03:06;12.25;;;5.20;;
66856;SDS011;53766;50.280;19.160;2023-02-28T12:05:54;13.00;;;5.90;;
66856;SDS011;53766;50.280;19.160;2023-02-28T12:11:26;10.10;;;5.40;;
66856;SDS011;53766;50.280;19.160;2023-02-28T12:25:22;10.70;;;5.93;;
66856;SDS011;53766;50.280;19.160;2023-02-28T12:28:04;11.93;;;5.32;;
66856;SDS011;53766;50.280;19.160;2023-02-28T12:30:35;11.50;;;5.82;;
66856;SDS011;53766;50.280;19.160;2023-02-28T12:33:07;10.25;;;5.47;;
66856;SDS011;53766;50.280;19.160;2023-02-28T12:35:44;9.82;;;5.47;;
66856;SDS011;53766;50.280;19.160;2023-02-28T12:38:29;10.18;;;5.22;;
66856;SDS011;53766;50.280;19.160;2023-02-28T12:41:12;10.55;;;5.43;;
66856;SDS011;53766;50.280;19.160;2023-02-28T12:44:04;9.68;;;5.20;;
66856;SDS011;53766;50.280;19.160;2023-02-28T12:46:37;8.85;;;5.13;;
66856;SDS011;53766;50.280;19.160;2023-02-28T12:49:11;9.93;;;5.30;;
66856;SDS011;53766;50.280;19.160;2023-02-28T12:51:43;13.45;;;5.57;;
66856;SDS011;53766;50.280;19.160;2023-02-28T12:56:56;10.43;;;5.15;;
66856;SDS011;53766;50.280;19.160;2023-02-28T12:59:48;8.93;;;5.28;;
66856;SDS011;53766;50.280;19.160;2023-02-28T13:02:27;9.70;;;4.85;;
66856;SDS011;53766;50.280;19.160;2023-02-28T13:10:51;8.95;;;5.00;;
66856;SDS011;53766;50.280;19.160;2023-02-28T13:13:23;9.73;;;5.78;;
66856;SDS011;53766;50.280;19.160;2023-02-28T13:18:33;11.27;;;5.30;;
66856;SDS011;53766;50.280;19.160;2023-02-28T13:21:08;10.52;;;5.43;;
66856;SDS011;53766;50.280;19.160;2023-02-28T13:26:23;9.37;;;5.27;;
66856;SDS011;53766;50.280;19.160;2023-02-28T13:37:35;9.93;;;5.43;;
66856;SDS011;53766;50.280;19.160;2023-02-28T13:47:43;8.95;;;5.28;;
66856;SDS011;53766;50.280;19.160;2023-02-28T13:50:21;11.30;;;5.68;;
66856;SDS011;53766;50.280;19.160;2023-02-28T13:58:31;9.07;;;5.20;;
66856;SDS011;53766;50.280;19.160;2023-02-28T14:01:30;10.07;;;5.15;;
66856;SDS011;53766;50.280;19.160;2023-02-28T14:06:59;10.25;;;5.47;;
66856;SDS011;53766;50.280;19.160;2023-02-28T14:09:29;8.43;;;5.03;;
66856;SDS011;53766;50.280;19.160;2023-02-28T14:15:23;8.43;;;5.18;;
66856;SDS011;53766;50.280;19.160;2023-02-28T14:18:31;8.70;;;5.20;;
66856;SDS011;53766;50.280;19.160;2023-02-28T14:21:02;9.05;;;4.95;;
66856;SDS011;53766;50.280;19.160;2023-02-28T14:26:27;11.48;;;5.07;;
66856;SDS011;53766;50.280;19.160;2023-02-28T14:32:47;9.52;;;5.28;;
66856;SDS011;53766;50.280;19.160;2023-02-28T14:38:23;10.18;;;5.35;;
66856;SDS011;53766;50.280;19.160;2023-02-28T14:40:55;9.68;;;5.35;;
66856;SDS011;53766;50.280;19.160;2023-02-28T14:43:26;7.78;;;5.22;;
66856;SDS011;53766;50.280;19.160;2023-02-28T14:45:59;8.82;;;4.88;;
66856;SDS011;53766;50.280;19.160;2023-02-28T14:48:28;10.43;;;5.45;;
66856;SDS011;53766;50.280;19.160;2023-02-28T14:50:59;8.85;;;5.05;;
66856;SDS011;53766;50.280;19.160;2023-02-28T14:53:28;9.25;;;5.25;;
66856;SDS011;53766;50.280;19.160;2023-02-28T14:56:01;10.98;;;5.50;;
66856;SDS011;53766;50.280;19.160;2023-02-28T14:58:30;10.27;;;5.32;;
66856;SDS011;53766;50.280;19.160;2023-02-28T15:01:01;8.10;;;5.20;;
66856;SDS011;53766;50.280;19.160;2023-02-28T15:03:34;10.13;;;5.82;;
66856;SDS011;53766;50.280;19.160;2023-02-28T15:06:12;9.25;;;5.10;;
66856;SDS011;53766;50.280;19.160;2023-02-28T15:08:41;8.98;;;5.15;;
66856;SDS011;53766;50.280;19.160;2023-02-28T15:11:12;9.73;;;5.38;;
66856;SDS011;53766;50.280;19.160;2023-02-28T15:13:43;9.40;;;5.50;;
66856;SDS011;53766;50.280;19.160;2023-02-28T15:19:24;10.98;;;5.32;;
66856;SDS011;53766;50.280;19.160;2023-02-28T15:21:55;8.73;;;4.88;;
66856;SDS011;53766;50.280;19.160;2023-02-28T15:24:35;8.70;;;5.38;;
66856;SDS011;53766;50.280;19.160;2023-02-28T15:27:07;10.57;;;5.47;;
66856;SDS011;53766;50.280;19.160;2023-02-28T15:29:44;10.15;;;4.93;;
66856;SDS011;53766;50.280;19.160;2023-02-28T15:32:21;8.15;;;4.90;;
66856;SDS011;53766;50.280;19.160;2023-02-28T15:34:53;8.40;;;5.03;;
66856;SDS011;53766;50.280;19.160;2023-02-28T15:37:55;9.43;;;5.32;;
66856;SDS011;53766;50.280;19.160;2023-02-28T15:43:03;10.32;;;5.25;;
66856;SDS011;53766;50.280;19.160;2023-02-28T15:45:36;9.80;;;5.47;;
66856;SDS011;53766;50.280;19.160;2023-02-28T15:48:13;10.85;;;5.07;;
66856;SDS011;53766;50.280;19.160;2023-02-28T15:50:48;8.23;;;4.93;;
66856;SDS011;53766;50.280;19.160;2023-02-28T15:53:19;10.57;;;5.88;;
66856;SDS011;53766;50.280;19.160;2023-02-28T15:55:54;9.35;;;5.53;;
66856;SDS011;53766;50.280;19.160;2023-02-28T15:58:25;8.18;;;5.03;;
66856;SDS011;53766;50.280;19.160;2023-02-28T16:01:04;8.55;;;5.10;;
66856;SDS011;53766;50.280;19.160;2023-02-28T16:03:47;9.63;;;5.13;;
66856;SDS011;53766;50.280;19.160;2023-02-28T16:09:00;8.80;;;4.90;;
66856;SDS011;53766;50.280;19.160;2023-02-28T16:11:29;8.48;;;5.40;;
66856;SDS011;53766;50.280;19.160;2023-02-28T16:13:57;10.05;;;5.43;;
66856;SDS011;53766;50.280;19.160;2023-02-28T16:16:25;9.20;;;5.70;;
66856;SDS011;53766;50.280;19.160;2023-02-28T16:18:53;8.00;;;4.88;;
66856;SDS011;53766;50.280;19.160;2023-02-28T16:21:22;8.55;;;4.90;;
66856;SDS011;53766;50.280;19.160;2023-02-28T16:23:50;7.68;;;4.78;;
66856;SDS011;53766;50.280;19.160;2023-02-28T16:26:19;9.25;;;5.53;;
66856;SDS011;53766;50.280;19.160;2023-02-28T16:28:49;9.48;;;5.35;;
66856;SDS011;53766;50.280;19.160;2023-02-28T16:31:18;8.13;;;4.90;;
66856;SDS011;53766;50.280;19.160;2023-02-28T16:33:47;7.63;;;4.75;;
66856;SDS011;53766;50.280;19.160;2023-02-28T16:36:18;7.88;;;4.68;;
66856;SDS011;53766;50.280;19.160;2023-02-28T16:38:48;9.80;;;5.18;;
66856;SDS011;53766;50.280;19.160;2023-02-28T16:41:18;10.15;;;5.40;;
66856;SDS011;53766;50.280;19.160;2023-02-28T16:43:50;8.40;;;5.20;;
66856;SDS011;53766;50.280;19.160;2023-02-28T16:46:19;7.57;;;4.70;;
66856;SDS011;53766;50.280;19.160;2023-02-28T16:48:48;9.35;;;5.20;;
66856;SDS011;53766;50.280;19.160;2023-02-28T16:51:18;8.15;;;4.97;;
66856;SDS011;53766;50.280;19.160;2023-02-28T16:53:45;8.27;;;5.00;;
66856;SDS011;53766;50.280;19.160;2023-02-28T16:56:15;8.25;;;5.03;;
66856;SDS011;53766;50.280;19.160;2023-02-28T16:58:52;8.25;;;4.88;;
66856;SDS011;53766;50.280;19.160;2023-02-28T17:01:26;9.40;;;5.20;;
66856;SDS011;53766;50.280;19.160;2023-02-28T17:03:55;9.63;;;5.30;;
66856;SDS011;53766;50.280;19.160;2023-02-28T17:06:26;9.68;;;5.72;;
66856;SDS011;53766;50.280;19.160;2023-02-28T17:08:56;8.98;;;4.70;;
66856;SDS011;53766;50.280;19.160;2023-02-28T17:11:25;8.07;;;5.03;;
66856;SDS011;53766;50.280;19.160;2023-02-28T17:13:53;9.75;;;5.60;;
66856;SDS011;53766;50.280;19.160;2023-02-28T17:16:23;11.52;;;5.72;;
66856;SDS011;53766;50.280;19.160;2023-02-28T17:18:57;7.57;;;4.88;;
66856;SDS011;53766;50.280;19.160;2023-02-28T17:21:32;9.80;;;5.35;;
66856;SDS011;53766;50.280;19.160;2023-02-28T17:24:01;9.95;;;5.60;;